createdAt,value
2018-06-30T00:01:56.694Z,25.20
2018-06-30T00:07:01.543Z,25.19
2018-06-30T00:12:06.034Z,25.19
2018-06-30T00:17:10.510Z,25.17
2018-06-30T00:22:14.957Z,25.18
2018-06-30T00:27:24.590Z,25.18
2018-06-30T00:32:29.481Z,25.20
2018-06-30T00:37:34.098Z,25.19
2018-06-30T00:42:38.611Z,25.19
2018-06-30T00:47:43.005Z,25.18
2018-06-30T00:52:47.489Z,25.20
2018-06-30T00:57:52.252Z,25.17
2018-06-30T01:02:56.993Z,25.18
2018-06-30T01:08:01.547Z,25.17
2018-06-30T01:13:06.290Z,25.17
2018-06-30T01:18:11.065Z,25.22
2018-06-30T01:23:15.557Z,25.17
2018-06-30T01:28:20.160Z,25.20
2018-06-30T01:33:24.612Z,25.16
2018-06-30T01:38:29.268Z,25.16
2018-06-30T01:43:33.763Z,25.16
2018-06-30T01:48:38.465Z,25.12
2018-06-30T01:53:42.999Z,25.13
2018-06-30T01:58:47.450Z,25.08
2018-06-30T02:03:52.090Z,25.08
2018-06-30T02:08:56.537Z,25.07
2018-06-30T02:14:00.989Z,25.10
2018-06-30T02:19:05.494Z,25.06
2018-06-30T02:24:09.981Z,25.09
2018-06-30T02:29:14.682Z,25.09
2018-06-30T02:34:19.147Z,25.04
2018-06-30T02:39:23.658Z,25.08
2018-06-30T02:44:28.323Z,25.04
2018-06-30T02:49:32.915Z,25.05
2018-06-30T02:54:37.387Z,25.05
2018-06-30T02:59:41.913Z,25.06
2018-06-30T03:04:46.445Z,25.04
2018-06-30T03:09:51.047Z,25.04
2018-06-30T03:14:55.501Z,25.04
2018-06-30T03:20:00.058Z,25.02
2018-06-30T03:25:05.007Z,24.98
2018-06-30T03:30:09.647Z,25.02
2018-06-30T03:35:14.264Z,25.02
2018-06-30T03:40:18.887Z,25.03
2018-06-30T03:45:23.443Z,25.02
2018-06-30T03:50:28.461Z,25.02
2018-06-30T03:55:32.973Z,25.04
2018-06-30T04:00:37.422Z,25.03
2018-06-30T04:05:41.898Z,25.08
2018-06-30T04:10:46.478Z,25.12
2018-06-30T04:15:50.933Z,25.12
2018-06-30T04:20:55.588Z,25.19
2018-06-30T04:26:00.093Z,25.22
2018-06-30T04:31:04.560Z,25.22
2018-06-30T04:36:09.185Z,25.27
2018-06-30T04:41:13.537Z,25.28
2018-06-30T04:46:18.157Z,25.35
2018-06-30T04:51:22.649Z,25.33
2018-06-30T04:56:27.635Z,25.35
2018-06-30T05:01:32.349Z,25.40
2018-06-30T05:06:36.741Z,25.39
2018-06-30T05:11:41.127Z,25.45
2018-06-30T05:16:45.336Z,25.44
2018-06-30T05:21:49.720Z,25.50
2018-06-30T05:26:54.365Z,25.50
2018-06-30T05:31:59.009Z,25.53
2018-06-30T05:37:03.440Z,25.52
2018-06-30T05:42:08.215Z,25.49
2018-06-30T05:47:12.671Z,25.57
2018-06-30T05:52:17.246Z,25.59
2018-06-30T05:57:21.807Z,25.56
2018-06-30T06:02:26.569Z,25.55
2018-06-30T06:07:31.209Z,25.50
2018-06-30T06:12:35.655Z,25.49
2018-06-30T06:17:40.292Z,25.47
2018-06-30T06:22:44.925Z,25.46
2018-06-30T06:27:49.676Z,25.49
2018-06-30T06:32:54.447Z,25.42
2018-06-30T06:37:58.662Z,25.45
2018-06-30T06:43:03.285Z,25.45
2018-06-30T06:48:08.059Z,25.46
2018-06-30T06:53:12.673Z,25.46
2018-06-30T06:58:18.295Z,25.46
2018-06-30T07:03:24.329Z,25.11
2018-06-30T07:08:29.572Z,24.15
2018-06-30T07:13:34.026Z,23.83
2018-06-30T07:18:38.741Z,23.77
2018-06-30T07:23:43.297Z,23.48
2018-06-30T07:28:47.985Z,23.47
2018-06-30T07:33:52.529Z,23.33
2018-06-30T07:38:57.112Z,23.22
2018-06-30T07:44:01.799Z,23.68
2018-06-30T07:49:06.357Z,23.73
2018-06-30T07:54:10.969Z,23.79
2018-06-30T07:59:15.796Z,23.66
2018-06-30T08:04:20.269Z,23.66
2018-06-30T08:09:24.820Z,23.90
2018-06-30T08:14:29.800Z,23.95
2018-06-30T08:19:34.849Z,23.85
2018-06-30T08:24:39.593Z,23.87
2018-06-30T08:29:44.096Z,24.00
2018-06-30T08:34:48.228Z,24.20
2018-06-30T08:39:52.829Z,24.79
2018-06-30T08:44:57.785Z,25.40
2018-06-30T08:50:02.349Z,24.70
2018-06-30T08:55:07.371Z,24.63
2018-06-30T09:00:12.017Z,24.62
2018-06-30T09:05:16.624Z,24.62
2018-06-30T09:10:21.153Z,24.66
2018-06-30T09:15:25.545Z,24.61
2018-06-30T09:20:29.919Z,24.69
2018-06-30T09:25:34.469Z,24.66
2018-06-30T09:30:39.213Z,24.53
2018-06-30T09:35:43.780Z,24.34
2018-06-30T09:40:49.244Z,24.72
2018-06-30T09:45:54.060Z,24.69
2018-06-30T09:50:58.641Z,24.79
2018-06-30T09:56:03.220Z,24.67
2018-06-30T10:01:07.312Z,24.85
2018-06-30T10:06:11.672Z,24.69
2018-06-30T10:11:16.010Z,24.70
2018-06-30T10:16:20.089Z,24.67
2018-06-30T10:21:24.500Z,24.67
2018-06-30T10:26:29.046Z,24.72
2018-06-30T10:31:33.893Z,24.65
2018-06-30T10:36:38.486Z,24.32
2018-06-30T10:41:42.962Z,24.29
2018-06-30T10:46:47.713Z,24.24
2018-06-30T10:51:52.249Z,25.83
2018-06-30T10:56:56.648Z,24.75
2018-06-30T11:02:01.065Z,24.66
2018-06-30T11:07:05.505Z,24.53
2018-06-30T11:12:09.910Z,24.54
2018-06-30T11:17:14.326Z,24.65
2018-06-30T11:22:18.989Z,24.52
2018-06-30T11:27:23.757Z,24.49
2018-06-30T11:32:28.183Z,24.49
2018-06-30T11:37:33.127Z,24.43
2018-06-30T11:42:37.843Z,24.47
2018-06-30T11:47:42.421Z,24.67
2018-06-30T11:52:46.832Z,24.76
2018-06-30T11:57:51.225Z,24.74
2018-06-30T12:02:55.820Z,24.86
2018-06-30T12:08:00.407Z,24.71
2018-06-30T12:13:04.804Z,25.14
2018-06-30T12:18:09.651Z,25.29
2018-06-30T12:23:14.766Z,25.02
2018-06-30T12:28:19.209Z,25.03
2018-06-30T12:33:23.280Z,25.10
2018-06-30T12:38:27.924Z,24.95
2018-06-30T12:43:32.338Z,25.01
2018-06-30T12:48:37.142Z,24.94
2018-06-30T12:53:41.516Z,25.05
2018-06-30T12:58:46.578Z,25.05
2018-06-30T13:03:51.572Z,25.18
2018-06-30T13:08:56.138Z,24.79
2018-06-30T13:14:02.889Z,25.15
2018-06-30T13:19:08.781Z,25.27
2018-06-30T13:24:13.122Z,25.26
2018-06-30T13:29:17.545Z,25.12
2018-06-30T13:34:22.090Z,25.19
2018-06-30T13:39:26.526Z,25.14
2018-06-30T13:44:31.070Z,25.15
2018-06-30T13:49:35.648Z,25.28
2018-06-30T13:54:40.495Z,25.27
2018-06-30T13:59:45.144Z,25.24
2018-06-30T14:04:50.440Z,25.26
2018-06-30T14:09:55.464Z,25.33
2018-06-30T14:14:59.917Z,25.22
2018-06-30T14:20:04.862Z,25.20
2018-06-30T14:25:09.910Z,25.47
2018-06-30T14:30:14.537Z,25.40
2018-06-30T14:35:19.121Z,25.00
2018-06-30T14:40:23.705Z,24.92
2018-06-30T14:45:28.127Z,24.91
2018-06-30T14:50:32.561Z,24.91
2018-06-30T14:55:37.233Z,24.88
2018-06-30T15:00:41.877Z,24.86
2018-06-30T15:05:46.401Z,24.86
2018-06-30T15:10:50.844Z,24.88
2018-06-30T15:15:55.593Z,24.83
2018-06-30T15:21:00.234Z,24.79
2018-06-30T15:26:05.082Z,24.78
2018-06-30T15:31:09.718Z,24.84
2018-06-30T15:36:14.202Z,24.83
2018-06-30T15:41:18.835Z,24.81
2018-06-30T15:46:23.467Z,24.82
2018-06-30T15:51:28.110Z,24.89
2018-06-30T15:56:32.632Z,24.83
2018-06-30T16:01:37.267Z,24.79
2018-06-30T16:06:42.209Z,24.81
2018-06-30T16:11:46.665Z,24.83
2018-06-30T16:16:51.217Z,25.51
2018-06-30T16:21:55.761Z,25.43
2018-06-30T16:27:00.394Z,25.40
2018-06-30T16:32:04.825Z,25.34
2018-06-30T16:37:09.441Z,25.29
2018-06-30T16:42:13.766Z,25.42
2018-06-30T16:47:18.153Z,25.39
2018-06-30T16:52:22.590Z,25.53
2018-06-30T16:57:27.058Z,25.02
2018-06-30T17:02:32.559Z,24.94
2018-06-30T17:07:38.072Z,24.91
2018-06-30T17:12:43.404Z,25.32
2018-06-30T17:17:47.846Z,25.32
2018-06-30T17:22:52.334Z,25.34
2018-06-30T17:27:57.029Z,25.24
2018-06-30T17:33:01.597Z,25.08
2018-06-30T17:38:06.052Z,25.53
2018-06-30T17:43:10.544Z,25.70
2018-06-30T17:48:15.046Z,25.09
2018-06-30T17:53:19.661Z,24.92
2018-06-30T17:58:24.151Z,24.99
2018-06-30T18:03:28.963Z,24.91
2018-06-30T18:08:33.608Z,24.92
2018-06-30T18:13:38.083Z,24.78
2018-06-30T18:18:42.599Z,24.78
2018-06-30T18:23:47.487Z,24.91
2018-06-30T18:28:52.017Z,24.78
2018-06-30T18:33:56.489Z,24.78
2018-06-30T18:39:01.091Z,24.80
2018-06-30T18:44:05.548Z,24.72
2018-06-30T18:49:10.231Z,24.70
2018-06-30T18:54:14.699Z,24.78
2018-06-30T18:59:19.343Z,24.78
2018-06-30T19:04:23.965Z,24.78
2018-06-30T19:09:28.497Z,24.30
2018-06-30T19:14:33.506Z,24.17
2018-06-30T19:19:38.388Z,23.81
2018-06-30T19:24:43.088Z,23.89
2018-06-30T19:29:47.555Z,24.07
2018-06-30T19:34:51.764Z,24.04
2018-06-30T19:39:56.399Z,23.92
2018-06-30T19:45:00.703Z,23.97
2018-06-30T19:50:06.276Z,24.09
2018-06-30T19:55:11.157Z,23.87
2018-06-30T20:00:16.128Z,23.80
2018-06-30T20:05:20.685Z,23.77
2018-06-30T20:10:26.039Z,23.88
2018-06-30T20:15:30.825Z,24.21
2018-06-30T20:20:36.407Z,24.48
2018-06-30T20:25:41.188Z,24.45
2018-06-30T20:30:45.734Z,23.83
2018-06-30T20:35:50.245Z,23.73
2018-06-30T20:40:54.749Z,23.65
2018-06-30T20:45:59.272Z,23.43
2018-06-30T20:51:03.742Z,23.55
2018-06-30T20:56:08.216Z,23.40
2018-06-30T21:01:13.561Z,23.43
2018-06-30T21:06:17.742Z,23.29
2018-06-30T21:11:22.351Z,23.35
2018-06-30T21:16:26.920Z,23.26
2018-06-30T21:21:31.946Z,23.18
2018-06-30T21:26:37.631Z,23.18
2018-06-30T21:31:42.121Z,23.10
2018-06-30T21:36:47.245Z,23.03
2018-06-30T21:41:52.089Z,22.96
2018-06-30T21:46:56.701Z,22.96
2018-06-30T21:52:01.204Z,22.91
2018-06-30T21:57:06.504Z,22.95
2018-06-30T22:02:11.420Z,22.98
2018-06-30T22:07:16.073Z,22.88
2018-06-30T22:12:20.880Z,22.85
2018-06-30T22:17:25.368Z,22.74
2018-06-30T22:22:30.313Z,22.76
2018-06-30T22:27:35.044Z,22.73
2018-06-30T22:32:39.638Z,22.78
2018-06-30T22:37:44.122Z,22.78
2018-06-30T22:42:49.057Z,22.70
2018-06-30T22:47:53.360Z,22.76
2018-06-30T22:52:57.926Z,22.74
2018-06-30T22:58:02.683Z,22.80
2018-06-30T23:03:12.019Z,23.01
2018-06-30T23:08:16.589Z,22.95
2018-06-30T23:13:21.255Z,22.84
2018-06-30T23:18:25.727Z,22.54
2018-06-30T23:23:30.209Z,22.76
2018-06-30T23:28:34.742Z,22.89
2018-06-30T23:33:39.408Z,22.90
2018-06-30T23:38:43.870Z,22.92
2018-06-30T23:43:48.673Z,22.87
2018-06-30T23:48:53.267Z,22.80
2018-06-30T23:53:57.950Z,22.67
2018-06-30T23:59:02.705Z,22.57
